Terminal Aerodrome Forecast
Issued by NWS Sterling, VA

Current Version | Previous Version | Graphics & Text | Print | Product List | Glossary On
Versions: 1 2 3 4 5 6 7 8 9 10 11 12 13 14 15 16 17 18 19 20 21 22 23 24 25 26
109
FTUS41 KLWX 201741
TAFIAD
TAF
KIAD 201741Z 2018/2124 16006KT 4SM -SHRA SCT003 OVC015
     FM202000 16006KT 4SM -DZ BR SCT003 OVC009
     FM202300 16005KT 4SM -DZ BR SCT003 OVC008
     FM211500 VRB03KT P6SM SCT003 OVC015
     FM211800 17004KT P6SM SCT008 OVC060=

USA.gov is the U.S. government's official web portal to all federal, state and local government web resources and services.